Port Huron, Michigan
Current Conditions -  °F | °C
As of 5:00 PM on Friday 24 Oct 2014 (Local Time) from CYZR Reporting Station
Few Clouds Few Clouds  
Wind Chill: 59°   Ceiling: Unl
Heat Index: 59°   Visibility: 9mi
Dew Point: 43°   Wind: 8mph
Humidity: 55%   Direction: 220°SW
Pressure: 29.96"   Gusts: NA
Location:  42.98°N, 82.43°W
Report Text: CYZR 242100Z AUTO 22007KT 200V270 9SM FEW038 15/06 A2996 RMK SLP149 DENSITY ALT 700FT
Loading
Personal Weather Stations






























Interactive Weather Map
Tropical Storm Tracking
New forecast layout! Learn more

10-Day Weather Forecast

Advertisements
Track Severe Weather on mobile